Time;durP1;ratioP1;P1;durP2;ratioP2;P2;SDS_P1;SDS_P2;PMS_P1;PMS_P2;Temp;Humidity;BMP_temperature;BMP_pressure;BME280_temperature;BME280_humidity;BME280_pressure;Samples;Min_cycle;Max_cycle;Signal;HPM_P1;HPM_P2
2021/12/10 05:11:50;;;;;;;;;;;;;;;1.47;83.87;95083.41;4250225;27;10143;-73
2021/12/10 05:13:52;;;;;;;;;;;;;;;1.42;84.93;95081.34;4215054;28;5770;-75
2021/12/10 05:15:58;;;;;;;;;;;;;;;1.31;85.37;95075.75;4250460;27;5597;-75
2021/12/10 05:18:00;;;;;;;;;;;;;;;1.17;86.49;95078.19;4250353;27;5601;-75
2021/12/10 05:20:11;;;;;;;;;;;;;;;1.11;87.29;95071.06;4249933;27;5656;-75
2021/12/10 05:22:13;;;;;;;;;;;;;;;1.14;86.89;95070.72;4215914;28;5745;-75
2021/12/10 05:24:16;;;;;;;;;;;;;;;0.94;89.20;95066.19;4222129;28;5782;-76
2021/12/10 05:26:18;;;;;;;;;;;;;;;0.83;90.11;95064.81;4250286;27;5641;-76
2021/12/10 05:28:19;;;;;;;;;;;;;;;0.83;89.42;95046.59;4215101;28;5701;-75
2021/12/10 05:30:24;;;;;;;;;;;;;;;0.96;89.36;95048.59;4250056;27;5623;-76
2021/12/10 05:32:26;;;;;;;;;;;;;;;0.96;89.70;95048.59;4250153;27;5753;-75
2021/12/10 05:34:27;;;;;;;;;;;;;;;0.72;90.35;95042.63;4248848;27;5645;-76
2021/12/10 05:36:30;;;;;;;;;;;;;;;0.37;91.51;95041.44;4214685;28;5809;-75
2021/12/10 05:38:33;;;;;;;;;;;;;;;0.49;91.89;95047.03;4215002;28;5764;-75
2021/12/10 05:40:34;;;;;;;;;;;;;;;0.62;91.99;95036.03;4216606;28;6408;-75
2021/12/10 05:42:36;;;;;;;;;;;;;;;0.72;91.23;95036.63;4187128;28;5911;-74
2021/12/10 05:44:38;;;;;;;;;;;;;;;0.45;93.77;95024.94;4216636;28;5755;-75
2021/12/10 05:46:40;;;;;;;;;;;;;;;0.57;93.78;95029.59;4198542;28;5726;-75
2021/12/10 05:48:43;;;;;;;;;;;;;;;0.54;93.88;95029.09;4211571;28;5801;-75
2021/12/10 05:50:45;;;;;;;;;;;;;;;0.65;93.67;95022.69;4215767;28;5623;-75
2021/12/10 05:52:47;;;;;;;;;;;;;;;0.61;93.79;95026.63;4214273;28;5631;-75
2021/12/10 05:54:52;;;;;;;;;;;;;;;0.67;93.83;95028.50;4214214;28;5806;-75
2021/12/10 05:56:54;;;;;;;;;;;;;;;0.68;93.81;95030.97;4194297;28;5727;-75
2021/12/10 05:58:55;;;;;;;;;;;;;;;0.75;93.71;95023.25;4197763;28;5838;-75
2021/12/10 06:01:02;;;;;;;;;;;;;;;0.52;94.07;95020.69;4214936;28;5909;-74
2021/12/10 06:03:06;;;;;;;;;;;;;;;0.31;96.15;95018.72;4196877;28;5703;-74
2021/12/10 06:05:08;;;;;;;;;;;;;;;0.53;95.42;95023.09;4196891;28;5973;-74
2021/12/10 06:07:10;;;;;;;;;;;;;;;0.62;94.33;95018.66;4195673;28;5821;-74
2021/12/10 06:09:12;;;;;;;;;;;;;;;0.61;94.58;95024.03;4215684;28;6288;-74
2021/12/10 06:11:13;;;;;;;;;;;;;;;0.62;94.25;95023.03;4175283;28;6437;-75
2021/12/10 06:13:15;;;;;;;;;;;;;;;0.41;95.29;95021.09;4160821;28;5938;-75
2021/12/10 06:15:20;;;;;;;;;;;;;;;0.10;97.18;95021.94;4183639;28;5719;-74
2021/12/10 06:17:22;;;;;;;;;;;;;;;0.31;96.63;95023.91;4183540;28;5906;-74
2021/12/10 06:19:24;;;;;;;;;;;;;;;0.29;95.96;95016.28;4183220;28;6397;-74
2021/12/10 06:21:26;;;;;;;;;;;;;;;0.39;96.06;95015.25;4183590;28;5702;-74
2021/12/10 06:23:27;;;;;;;;;;;;;;;0.39;96.04;95015.25;4182153;28;6009;-74
2021/12/10 06:25:31;;;;;;;;;;;;;;;0.29;96.17;95020.69;4179203;28;5686;-74
2021/12/10 06:27:32;;;;;;;;;;;;;;;0.08;97.75;95023.09;4194438;28;5799;-74
2021/12/10 06:29:36;;;;;;;;;;;;;;;0.03;97.53;95028.00;4179269;28;5699;-74
2021/12/10 06:31:38;;;;;;;;;;;;;;;0.07;98.17;95029.25;4181854;28;5831;-74
2021/12/10 06:33:44;;;;;;;;;;;;;;;0.19;97.82;95014.91;4176719;28;6021;-74
2021/12/10 06:35:49;;;;;;;;;;;;;;;0.32;97.72;95025.53;4181345;28;5881;-74
2021/12/10 06:37:53;;;;;;;;;;;;;;;0.09;98.23;95030.72;4164799;28;5736;-73
2021/12/10 06:39:59;;;;;;;;;;;;;;;-0.11;99.13;95014.75;4186312;28;5718;-74
2021/12/10 06:42:02;;;;;;;;;;;;;;;-0.08;99.32;95013.59;4187078;28;5771;-74
2021/12/10 06:44:04;;;;;;;;;;;;;;;-0.02;99.42;95018.91;4187330;28;5715;-74
2021/12/10 06:46:07;;;;;;;;;;;;;;;0.16;98.80;95020.44;4186350;28;5719;-74
2021/12/10 06:48:10;;;;;;;;;;;;;;;0.11;99.03;95023.53;4185945;28;5984;-74
2021/12/10 06:50:11;;;;;;;;;;;;;;;0.31;98.43;95016.13;4168253;28;6075;-74
2021/12/10 06:52:14;;;;;;;;;;;;;;;0.22;98.29;95017.16;4185911;28;5760;-70
2021/12/10 06:54:16;;;;;;;;;;;;;;;0.35;98.05;95022.59;4186082;28;5723;-70
2021/12/10 06:56:19;;;;;;;;;;;;;;;0.23;98.36;95019.59;4184866;28;5945;-71
2021/12/10 06:58:23;;;;;;;;;;;;;;;0.37;98.04;95023.22;4181432;28;5765;-71
2021/12/10 07:00:32;;;;;;;;;;;;;;;0.38;97.87;95030.03;4178270;28;5726;-71
2021/12/10 07:02:33;;;;;;;;;;;;;;;0.17;98.97;95022.06;4186388;28;5881;-71
2021/12/10 07:04:40;;;;;;;;;;;;;;;0.40;98.06;95028.06;4185615;28;5747;-70
2021/12/10 07:06:44;;;;;;;;;;;;;;;0.42;97.70;95020.09;4174717;28;5741;-71
2021/12/10 07:08:47;;;;;;;;;;;;;;;0.56;97.29;95030.53;4185496;28;5735;-71
2021/12/10 07:10:49;;;;;;;;;;;;;;;0.50;96.69;95022.66;4184533;28;5847;-71
2021/12/10 07:12:51;;;;;;;;;;;;;;;0.58;96.74;95020.00;4169046;28;6443;-71
2021/12/10 07:14:56;;;;;;;;;;;;;;;0.67;96.64;95015.50;4169437;28;5803;-71
2021/12/10 07:16:58;;;;;;;;;;;;;;;0.71;96.52;95022.00;4169077;28;5736;-70
2021/12/10 07:19:02;;;;;;;;;;;;;;;0.77;96.21;95019.47;4170012;28;5739;-71
2021/12/10 07:21:05;;;;;;;;;;;;;;;0.87;95.40;95021.84;4175385;28;5891;-71
2021/12/10 07:23:08;;;;;;;;;;;;;;;0.90;95.33;95024.09;4184365;28;5805;-71
2021/12/10 07:25:09;;;;;;;;;;;;;;;0.88;95.46;95026.88;4185468;28;5796;-71
2021/12/10 07:27:12;;;;;;;;;;;;;;;0.92;95.04;95034.34;4186898;28;5719;-71
2021/12/10 07:29:14;;;;;;;;;;;;;;;0.85;95.29;95029.03;4186544;28;5727;-71
2021/12/10 07:31:16;;;;;;;;;;;;;;;0.89;95.07;95038.09;4184490;28;5921;-71
2021/12/10 07:33:18;;;;;;;;;;;;;;;0.94;95.11;95033.16;4186466;28;5715;-71
2021/12/10 07:35:20;;;;;;;;;;;;;;;1.03;94.79;95045.13;4184151;28;5925;-71
2021/12/10 07:37:22;;;;;;;;;;;;;;;1.03;94.46;95039.13;4186607;28;5719;-71
2021/12/10 07:39:23;;;;;;;;;;;;;;;0.95;94.52;95058.22;4185538;28;5779;-71
2021/12/10 07:41:25;;;;;;;;;;;;;;;0.95;94.74;95058.22;4186166;28;5718;-71
2021/12/10 07:43:27;;;;;;;;;;;;;;;0.90;94.72;95057.09;4185563;28;5723;-70
2021/12/10 07:45:29;;;;;;;;;;;;;;;0.93;94.75;95062.78;4186363;28;5711;-71
2021/12/10 07:47:35;;;;;;;;;;;;;;;0.95;94.39;95060.00;4184215;28;5734;-72
2021/12/10 07:49:38;;;;;;;;;;;;;;;1.05;94.56;95063.97;4174090;28;5760;-72
2021/12/10 07:51:41;;;;;;;;;;;;;;;1.02;94.53;95066.94;4182233;28;5718;-72
2021/12/10 07:53:43;;;;;;;;;;;;;;;1.02;94.17;95074.75;4185871;28;5715;-70
2021/12/10 07:55:45;;;;;;;;;;;;;;;1.07;94.19;95076.81;4179035;28;5853;-70
2021/12/10 07:57:50;;;;;;;;;;;;;;;1.14;94.02;95073.31;4189883;28;5087;-71
2021/12/10 07:59:52;;;;;;;;;;;;;;;1.00;94.28;95076.69;4202948;28;5689;-71
2021/12/10 08:01:53;;;;;;;;;;;;;;;1.15;94.02;95071.53;4190363;28;5825;-71
2021/12/10 08:03:56;;;;;;;;;;;;;;;1.15;93.89;95064.53;4177407;28;5836;-71
2021/12/10 08:05:58;;;;;;;;;;;;;;;1.17;93.86;95072.97;4193819;28;5706;-71
2021/12/10 08:08:00;;;;;;;;;;;;;;;0.99;94.08;95059.47;4201663;28;5754;-71
2021/12/10 08:10:04;;;;;;;;;;;;;;;0.58;95.77;95059.81;4166383;28;7724;-71
2021/12/10 08:12:06;;;;;;;;;;;;;;;0.84;95.35;95050.81;4146595;28;5776;-71
2021/12/10 08:14:09;;;;;;;;;;;;;;;0.88;95.15;95057.28;4168250;28;5668;-71
2021/12/10 08:16:11;;;;;;;;;;;;;;;0.56;95.74;95059.16;4168207;28;5828;-71
2021/12/10 08:18:12;;;;;;;;;;;;;;;0.16;98.44;95054.22;4170197;28;5744;-71
2021/12/10 08:20:19;;;;;;;;;;;;;;;0.23;99.06;95057.78;4176480;28;5702;-71
2021/12/10 08:22:20;;;;;;;;;;;;;;;0.56;97.85;95053.13;4168280;28;5772;-71
2021/12/10 08:24:22;;;;;;;;;;;;;;;0.71;96.65;95051.41;4172267;28;5665;-71
2021/12/10 08:26:24;;;;;;;;;;;;;;;0.84;95.92;95058.63;4168557;28;5107;-71
2021/12/10 08:28:27;;;;;;;;;;;;;;;0.84;95.45;95061.22;4168943;28;5749;-71
2021/12/10 08:30:33;;;;;;;;;;;;;;;0.71;96.08;95055.81;4168729;28;5751;-71
2021/12/10 08:32:35;;;;;;;;;;;;;;;0.60;96.55;95051.03;4168302;28;5653;-70
2021/12/10 08:34:36;;;;;;;;;;;;;;;0.45;97.34;95046.53;4167492;28;5672;-71
2021/12/10 08:36:38;;;;;;;;;;;;;;;0.82;96.16;95058.00;4167058;28;5841;-71
2021/12/10 08:38:39;;;;;;;;;;;;;;;0.83;95.53;95054.41;4167759;28;5649;-71
2021/12/10 08:40:47;;;;;;;;;;;;;;;0.69;96.37;95047.38;4174800;28;5722;-71
2021/12/10 08:42:50;;;;;;;;;;;;;;;0.74;96.29;95050.25;4184082;28;5638;-71
2021/12/10 08:44:52;;;;;;;;;;;;;;;0.94;95.83;95063.59;4183309;28;5739;-71
2021/12/10 08:46:54;;;;;;;;;;;;;;;0.86;95.49;95065.25;4182604;28;5794;-71
2021/12/10 08:48:59;;;;;;;;;;;;;;;0.72;96.30;95063.44;4181887;28;5664;-71
2021/12/10 08:51:06;;;;;;;;;;;;;;;0.84;95.77;95062.03;4178702;28;5973;-71
2021/12/10 08:53:12;;;;;;;;;;;;;;;1.00;95.37;95068.88;4157803;28;5761;-71
2021/12/10 08:55:14;;;;;;;;;;;;;;;1.18;94.03;95076.38;4173712;28;5859;-71
2021/12/10 08:57:16;;;;;;;;;;;;;;;1.02;94.22;95073.91;4180412;28;5826;-71
2021/12/10 08:59:21;;;;;;;;;;;;;;;1.04;94.85;95072.78;4182248;28;5078;-71
2021/12/10 09:01:31;;;;;;;;;;;;;;;0.72;95.73;95067.81;4185462;28;5826;-71
2021/12/10 09:03:33;;;;;;;;;;;;;;;0.65;96.62;95064.28;4185310;28;5711;-71
2021/12/10 09:05:36;;;;;;;;;;;;;;;0.79;96.35;95074.78;4185076;28;5715;-71
2021/12/10 09:07:38;;;;;;;;;;;;;;;0.96;95.39;95083.25;4185362;28;5710;-71
2021/12/10 09:09:44;;;;;;;;;;;;;;;1.09;94.97;95083.44;4185198;28;5753;-71
2021/12/10 09:11:52;;;;;;;;;;;;;;;1.05;94.62;95083.97;4199472;28;6423;-71
2021/12/10 09:13:54;;;;;;;;;;;;;;;1.28;93.99;95086.53;4201989;28;5695;-71
2021/12/10 09:16:00;;;;;;;;;;;;;;;1.03;93.69;95084.16;4201814;28;5745;-71
2021/12/10 09:18:02;;;;;;;;;;;;;;;1.26;93.88;95096.34;4202005;28;5638;-70
2021/12/10 09:20:13;;;;;;;;;;;;;;;1.37;93.10;95098.50;4183823;28;5766;-70
2021/12/10 09:22:16;;;;;;;;;;;;;;;1.38;92.68;95110.53;4201888;28;5646;-70
2021/12/10 09:24:20;;;;;;;;;;;;;;;1.30;93.18;95110.59;4201646;28;5678;-70
2021/12/10 09:26:25;;;;;;;;;;;;;;;0.95;93.77;95099.84;4202011;28;5623;-70
2021/12/10 09:28:28;;;;;;;;;;;;;;;0.91;94.45;95098.56;4202007;28;5642;-70
2021/12/10 09:30:31;;;;;;;;;;;;;;;1.18;93.54;95105.00;4201784;28;5731;-70
2021/12/10 09:32:33;;;;;;;;;;;;;;;1.07;93.74;95103.63;4202031;28;5743;-71
2021/12/10 09:34:34;;;;;;;;;;;;;;;1.15;93.93;95106.19;4201862;28;5801;-71
2021/12/10 09:36:37;;;;;;;;;;;;;;;1.17;94.10;95104.19;4184203;28;5738;-71
2021/12/10 09:38:39;;;;;;;;;;;;;;;1.30;93.90;95114.00;4201630;28;5635;-71
2021/12/10 09:40:47;;;;;;;;;;;;;;;1.32;94.23;95117.25;4183831;28;5768;-71
2021/12/10 09:42:49;;;;;;;;;;;;;;;1.08;96.43;95122.66;4201725;28;5619;-70
2021/12/10 09:44:53;;;;;;;;;;;;;;;1.35;95.28;95126.47;4201779;28;5634;-72
2021/12/10 09:46:56;;;;;;;;;;;;;;;1.11;96.53;95109.28;4202629;28;5694;-71
2021/12/10 09:48:58;;;;;;;;;;;;;;;1.42;95.59;95127.41;4204839;28;5694;-71
2021/12/10 09:51:17;;;;;;;;;;;;;;;1.45;94.79;95122.66;4196831;28;5778;-71
2021/12/10 09:53:19;;;;;;;;;;;;;;;1.49;95.03;95114.50;4188316;28;5750;-71
2021/12/10 09:55:21;;;;;;;;;;;;;;;1.47;94.56;95122.47;4187889;28;5645;-71
2021/12/10 09:57:27;;;;;;;;;;;;;;;1.45;94.71;95135.66;4187891;28;5742;-71
2021/12/10 09:59:52;;;;;;;;;;;;;;;1.51;94.49;95136.75;4188344;28;5642;-71
2021/12/10 10:01:54;;;;;;;;;;;;;;;1.49;94.58;95132.72;4187799;28;5638;-71
2021/12/10 10:04:02;;;;;;;;;;;;;;;1.51;94.73;95139.38;4170680;28;5736;-71
2021/12/10 10:06:05;;;;;;;;;;;;;;;1.52;94.68;95132.38;4170733;28;5900;-70
2021/12/10 10:08:09;;;;;;;;;;;;;;;1.56;94.69;95138.81;4170535;28;5747;-71
2021/12/10 10:10:15;;;;;;;;;;;;;;;1.58;94.13;95129.84;4170919;28;5740;-71
2021/12/10 10:12:29;;;;;;;;;;;;;;;1.63;94.37;95129.31;4188195;28;6388;-72
2021/12/10 10:14:31;;;;;;;;;;;;;;;1.60;94.89;95130.50;4170159;28;5859;-71
2021/12/10 10:16:35;;;;;;;;;;;;;;;1.60;95.43;95133.09;4170038;28;5743;-71
2021/12/10 10:18:39;;;;;;;;;;;;;;;1.62;95.64;95144.16;4169709;28;5851;-71
2021/12/10 10:20:45;;;;;;;;;;;;;;;1.66;95.40;95134.97;4170020;28;5744;-71
2021/12/10 10:22:47;;;;;;;;;;;;;;;1.66;95.27;95139.38;4170039;28;5724;-71
2021/12/10 10:24:48;;;;;;;;;;;;;;;1.63;95.36;95147.56;4187497;28;5637;-71
2021/12/10 10:26:56;;;;;;;;;;;;;;;1.58;95.51;95140.25;4187398;28;5653;-71
2021/12/10 10:29:11;;;;;;;;;;;;;;;1.50;95.88;95131.75;4169978;28;5744;-71
2021/12/10 10:31:18;;;;;;;;;;;;;;;1.46;96.40;95134.69;4187578;28;5672;-71
2021/12/10 10:33:21;;;;;;;;;;;;;;;1.42;96.48;95123.00;4169413;28;5898;-70
2021/12/10 10:35:28;;;;;;;;;;;;;;;1.42;96.28;95128.22;4169661;28;5736;-71
2021/12/10 10:37:29;;;;;;;;;;;;;;;1.42;96.35;95138.63;4187376;28;6474;-70
2021/12/10 10:39:34;;;;;;;;;;;;;;;1.41;96.35;95136.22;4187302;28;5646;-70
2021/12/10 10:41:37;;;;;;;;;;;;;;;1.39;96.30;95127.78;4169848;28;6611;-70
2021/12/10 10:43:39;;;;;;;;;;;;;;;1.41;95.82;95137.00;4169676;28;5844;-70
2021/12/10 10:45:45;;;;;;;;;;;;;;;1.48;96.04;95137.13;4169518;28;5764;-70
2021/12/10 10:47:48;;;;;;;;;;;;;;;1.54;95.81;95131.19;4186960;28;5650;-71
2021/12/10 10:50:14;;;;;;;;;;;;;;;1.52;95.43;95135.78;4169584;28;5867;-70
2021/12/10 10:52:15;;;;;;;;;;;;;;;1.55;95.53;95143.22;4187710;28;5642;-71
2021/12/10 10:54:17;;;;;;;;;;;;;;;1.59;95.16;95143.69;4187208;28;5637;-70
2021/12/10 10:56:30;;;;;;;;;;;;;;;1.58;94.75;95145.47;4169487;28;5852;-70
2021/12/10 10:58:37;;;;;;;;;;;;;;;1.55;94.98;95151.03;4153584;28;6430;-70
2021/12/10 11:01:10;;;;;;;;;;;;;;;1.54;94.94;95148.63;4169379;28;5767;-70
2021/12/10 11:03:40;;;;;;;;;;;;;;;1.55;94.69;95148.44;4201277;28;7266;-70
2021/12/10 11:05:56;;;;;;;;;;;;;;;1.62;94.61;95149.34;4180183;28;5703;-70
2021/12/10 11:08:01;;;;;;;;;;;;;;;1.67;94.69;95141.81;4185177;28;5825;-70
2021/12/10 11:10:05;;;;;;;;;;;;;;;1.77;94.36;95145.94;4185486;28;6407;-70
2021/12/10 11:12:14;;;;;;;;;;;;;;;1.81;94.40;95142.78;4184712;28;5807;-70
2021/12/10 11:14:32;;;;;;;;;;;;;;;1.88;94.17;95148.09;4185989;28;5716;-71
2021/12/10 11:16:37;;;;;;;;;;;;;;;1.80;94.72;95140.38;4186192;28;5778;-69
2021/12/10 11:18:47;;;;;;;;;;;;;;;1.88;94.99;95145.50;4185224;28;5715;-70
2021/12/10 11:20:49;;;;;;;;;;;;;;;1.89;94.65;95150.53;4183608;28;5715;-70
2021/12/10 11:22:54;;;;;;;;;;;;;;;1.95;94.94;95146.41;4183536;28;5713;-71
2021/12/10 11:24:59;;;;;;;;;;;;;;;2.00;94.68;95144.06;4187596;28;5722;-71
2021/12/10 11:27:12;;;;;;;;;;;;;;;2.04;94.57;95153.16;4186636;28;5711;-71
2021/12/10 11:29:27;;;;;;;;;;;;;;;2.12;94.42;95149.63;4179419;28;5762;-71
2021/12/10 11:31:29;;;;;;;;;;;;;;;2.17;94.65;95158.53;4195789;28;5694;-70
2021/12/10 11:33:42;;;;;;;;;;;;;;;2.14;95.45;95153.66;4203089;28;5690;-70
2021/12/10 11:35:51;;;;;;;;;;;;;;;2.10;95.25;95152.41;4187065;28;5714;-70
2021/12/10 11:37:56;;;;;;;;;;;;;;;2.00;95.38;95152.69;4184906;28;5726;-71
2021/12/10 11:39:57;;;;;;;;;;;;;;;2.21;94.90;95148.56;4184943;28;5719;-71
2021/12/10 11:41:59;;;;;;;;;;;;;;;2.10;95.01;95155.03;4186184;28;5735;-70
2021/12/10 11:44:26;;;;;;;;;;;;;;;1.95;96.47;95157.66;4186464;28;5827;-71
2021/12/10 11:46:43;;;;;;;;;;;;;;;1.79;97.67;95149.97;4169655;28;5744;-71
2021/12/10 11:48:47;;;;;;;;;;;;;;;1.88;96.89;95153.31;4175670;28;6608;-70
2021/12/10 11:51:00;;;;;;;;;;;;;;;1.87;96.43;95157.72;4190843;28;5693;-71
2021/12/10 11:53:13;;;;;;;;;;;;;;;2.05;95.56;95157.38;4189640;28;6399;-71
2021/12/10 11:55:14;;;;;;;;;;;;;;;1.98;94.65;95146.84;4184173;28;5794;-71
2021/12/10 11:57:28;;;;;;;;;;;;;;;2.02;94.44;95149.91;4179581;28;5814;-71
2021/12/10 11:59:50;;;;;;;;;;;;;;;2.06;94.33;95156.38;4187578;28;5729;-72
2021/12/10 12:02:10;;;;;;;;;;;;;;;1.85;94.25;95145.88;4169404;28;5720;-70
2021/12/10 12:04:23;;;;;;;;;;;;;;;1.94;94.52;95160.44;4184287;28;6096;-72
2021/12/10 12:06:24;;;;;;;;;;;;;;;1.91;94.01;95163.38;4185358;28;6879;-70
2021/12/10 12:08:27;;;;;;;;;;;;;;;1.80;94.54;95169.03;4183779;28;5714;-71
2021/12/10 12:10:41;;;;;;;;;;;;;;;1.85;93.87;95158.91;4183358;28;5718;-71
2021/12/10 12:15:27;;;;;;;;;;;;;;;1.75;94.80;95170.38;4174945;28;5779;-71
2021/12/10 12:17:45;;;;;;;;;;;;;;;1.88;94.56;95169.75;4185018;28;5813;-72
2021/12/10 12:19:46;;;;;;;;;;;;;;;1.83;93.99;95166.09;4179463;28;5728;-71
2021/12/10 12:23:30;;;;;;;;;;;;;;;1.83;94.16;95169.50;4168290;28;6412;-72
2021/12/10 12:26:46;;;;;;;;;;;;;;;2.02;93.79;95174.16;4169362;28;5733;-72
2021/12/10 12:29:11;;;;;;;;;;;;;;;2.22;93.96;95181.44;4154320;28;5748;-72
2021/12/10 12:31:29;;;;;;;;;;;;;;;1.94;94.22;95178.69;4152556;28;5924;-72
2021/12/10 12:34:13;;;;;;;;;;;;;;;2.04;94.28;95174.00;4169190;28;5740;-72
2021/12/10 12:36:15;;;;;;;;;;;;;;;2.28;93.46;95181.56;4166283;28;5744;-72
2021/12/10 12:38:22;;;;;;;;;;;;;;;2.02;93.08;95186.38;4168229;28;5720;-72
2021/12/10 12:40:46;;;;;;;;;;;;;;;1.82;93.92;95180.09;4168898;28;5720;-71
2021/12/10 12:42:49;;;;;;;;;;;;;;;1.95;93.33;95183.72;4167528;28;5744;-72
2021/12/10 12:44:52;;;;;;;;;;;;;;;1.81;93.97;95191.50;4168789;28;5752;-72
2021/12/10 12:47:20;;;;;;;;;;;;;;;1.67;94.83;95186.09;4170101;28;5736;-72
2021/12/10 12:49:22;;;;;;;;;;;;;;;1.90;94.40;95193.03;4170462;28;5729;-73
2021/12/10 12:51:23;;;;;;;;;;;;;;;1.77;94.10;95182.41;4168403;28;6408;-72
2021/12/10 12:53:30;;;;;;;;;;;;;;;1.81;94.45;95187.09;4168403;28;5802;-72
2021/12/10 12:55:43;;;;;;;;;;;;;;;1.89;93.96;95207.06;4152504;28;5761;-73
2021/12/10 12:58:10;;;;;;;;;;;;;;;2.12;93.62;95191.34;4170303;28;5808;-72
2021/12/10 13:01:02;;;;;;;;;;;;;;;2.07;94.05;95178.84;4169312;28;5772;-72
2021/12/10 13:03:13;;;;;;;;;;;;;;;2.08;94.58;95190.91;4169572;28;5769;-73
2021/12/10 13:05:41;;;;;;;;;;;;;;;2.31;93.76;95196.03;4168834;28;5724;-72
2021/12/10 13:07:44;;;;;;;;;;;;;;;2.40;93.45;95207.19;4171269;28;5757;-70
2021/12/10 13:09:53;;;;;;;;;;;;;;;2.34;93.10;95201.69;4174938;28;5794;-70
2021/12/10 13:14:14;;;;;;;;;;;;;;;2.41;92.85;95221.81;4185921;28;5653;-70
2021/12/10 13:16:37;;;;;;;;;;;;;;;2.28;93.13;95227.69;4201027;28;5802;-73
2021/12/10 13:18:42;;;;;;;;;;;;;;;2.48;93.10;95222.69;4204331;28;5062;-70
2021/12/10 13:20:48;;;;;;;;;;;;;;;2.59;92.63;95230.06;4203069;28;7668;-70
2021/12/10 13:22:55;;;;;;;;;;;;;;;2.36;92.66;95221.53;4206013;28;5638;-71
2021/12/10 13:25:03;;;;;;;;;;;;;;;2.30;93.28;95229.13;4172227;28;5184;-71
2021/12/10 13:27:07;;;;;;;;;;;;;;;2.45;92.38;95236.94;4159268;28;7740;-71
2021/12/10 13:29:09;;;;;;;;;;;;;;;2.50;92.37;95233.78;4172765;28;6297;-73
2021/12/10 13:31:14;;;;;;;;;;;;;;;2.54;91.83;95238.44;4203583;28;5664;-73
2021/12/10 13:33:23;;;;;;;;;;;;;;;2.51;92.34;95248.44;4190428;28;5750;-74
2021/12/10 13:35:29;;;;;;;;;;;;;;;2.43;92.74;95254.56;4184275;28;7521;-76
2021/12/10 13:37:31;;;;;;;;;;;;;;;2.39;92.83;95255.09;4190036;28;5707;-72
2021/12/10 13:39:35;;;;;;;;;;;;;;;2.36;93.47;95261.47;4207599;28;5045;-75
2021/12/10 13:41:37;;;;;;;;;;;;;;;2.54;93.67;95263.72;4179739;28;6606;-73
2021/12/10 13:43:47;;;;;;;;;;;;;;;2.70;93.16;95263.53;4190067;28;5656;-69
2021/12/10 13:45:59;;;;;;;;;;;;;;;2.88;92.97;95258.75;4177482;28;5707;-69
2021/12/10 13:48:04;;;;;;;;;;;;;;;2.93;92.85;95253.78;4187670;28;5766;-70
2021/12/10 13:50:14;;;;;;;;;;;;;;;3.09;92.22;95260.59;4204546;28;5635;-70
2021/12/10 13:52:48;;;;;;;;;;;;;;;3.14;91.55;95252.19;4206184;28;5682;-68
2021/12/10 13:54:52;;;;;;;;;;;;;;;3.22;91.59;95254.69;4203193;28;5689;-69
2021/12/10 13:57:05;;;;;;;;;;;;;;;3.19;90.96;95258.50;4203997;28;5631;-69
2021/12/10 13:59:08;;;;;;;;;;;;;;;3.22;91.58;95255.50;4171537;28;5863;-69
2021/12/10 14:01:14;;;;;;;;;;;;;;;3.24;91.75;95262.34;4205396;28;5615;-69
2021/12/10 14:03:55;;;;;;;;;;;;;;;3.30;90.59;95265.03;4200250;28;5690;-68
2021/12/10 14:06:05;;;;;;;;;;;;;;;3.28;91.17;95261.78;4179453;28;5821;-69
2021/12/10 14:08:15;;;;;;;;;;;;;;;3.30;91.20;95266.84;4205147;28;5623;-69
2021/12/10 14:10:32;;;;;;;;;;;;;;;3.25;90.72;95270.00;4204776;28;5635;-69
2021/12/10 14:12:41;;;;;;;;;;;;;;;3.34;90.46;95266.28;4187071;28;5706;-69
2021/12/10 14:14:50;;;;;;;;;;;;;;;3.32;89.69;95272.69;4186923;28;5714;-69
2021/12/10 14:16:56;;;;;;;;;;;;;;;3.40;89.83;95273.38;4205078;28;5631;-69
2021/12/10 14:19:39;;;;;;;;;;;;;;;3.51;88.94;95277.28;4204841;28;5642;-69
2021/12/10 14:22:03;;;;;;;;;;;;;;;3.53;87.79;95275.31;4170469;28;5093;-69
2021/12/10 14:24:46;;;;;;;;;;;;;;;3.53;86.67;95284.97;4200311;28;5683;-69
2021/12/10 14:27:17;;;;;;;;;;;;;;;3.59;86.29;95281.59;4174382;28;5662;-69
2021/12/10 14:29:40;;;;;;;;;;;;;;;3.62;84.20;95289.03;4200835;28;5660;-68
2021/12/10 14:32:00;;;;;;;;;;;;;;;3.64;84.44;95289.69;4199245;28;5176;-68
2021/12/10 14:34:13;;;;;;;;;;;;;;;3.65;84.95;95294.72;4200465;28;7792;-69
2021/12/10 14:36:17;;;;;;;;;;;;;;;3.67;84.84;95284.09;4185532;28;5424;-67
2021/12/10 14:38:33;;;;;;;;;;;;;;;3.69;82.08;95284.69;4182268;28;7331;-66
2021/12/10 14:41:01;;;;;;;;;;;;;;;3.66;83.33;95296.34;4172767;28;5811;-69
2021/12/10 14:43:25;;;;;;;;;;;;;;;3.71;83.79;95295.78;4183482;28;5847;-67
2021/12/10 14:45:27;;;;;;;;;;;;;;;3.76;84.00;95296.84;4194422;28;5112;-67
2021/12/10 14:47:29;;;;;;;;;;;;;;;3.79;83.14;95306.13;4183731;28;5703;-68
2021/12/10 14:50:02;;;;;;;;;;;;;;;3.80;82.49;95308.53;4179814;28;5673;-68
2021/12/10 14:52:35;;;;;;;;;;;;;;;3.82;81.92;95305.72;4198657;28;5771;-68
2021/12/10 14:55:08;;;;;;;;;;;;;;;3.79;80.85;95306.91;4198144;28;5718;-68
2021/12/10 14:57:42;;;;;;;;;;;;;;;3.83;82.20;95312.56;4196598;28;5643;-67
2021/12/10 15:00:04;;;;;;;;;;;;;;;3.86;81.10;95327.91;4197425;28;6565;-68
2021/12/10 15:02:29;;;;;;;;;;;;;;;3.86;80.71;95322.69;4193716;28;5642;-69
2021/12/10 15:05:08;;;;;;;;;;;;;;;3.91;81.28;95325.53;4200590;28;5635;-68
2021/12/10 15:07:33;;;;;;;;;;;;;;;3.91;81.41;95335.19;4174823;28;5864;-68
2021/12/10 15:09:55;;;;;;;;;;;;;;;3.87;81.91;95345.22;4177079;28;5825;-69
2021/12/10 15:12:16;;;;;;;;;;;;;;;3.76;83.13;95359.59;4197115;28;5733;-68
2021/12/10 15:14:43;;;;;;;;;;;;;;;3.72;83.56;95368.78;4183423;28;5866;-69
2021/12/10 15:17:10;;;;;;;;;;;;;;;3.72;84.09;95363.53;4195312;28;5753;-67
2021/12/10 15:19:17;;;;;;;;;;;;;;;3.64;84.29;95391.63;4194212;28;5731;-68
2021/12/10 15:21:37;;;;;;;;;;;;;;;3.53;84.58;95389.47;4198766;28;5781;-68
2021/12/10 15:23:41;;;;;;;;;;;;;;;3.51;85.61;95384.41;4194404;28;5744;-67
2021/12/10 15:25:44;;;;;;;;;;;;;;;3.44;86.50;95394.81;4176516;28;5818;-68
2021/12/10 15:27:46;;;;;;;;;;;;;;;3.33;86.81;95395.28;4177916;28;5829;-67
2021/12/10 15:29:54;;;;;;;;;;;;;;;3.36;86.83;95388.88;4198733;28;5631;-67
2021/12/10 15:32:17;;;;;;;;;;;;;;;3.33;87.84;95389.22;4179666;28;5833;-66
2021/12/10 15:35:02;;;;;;;;;;;;;;;3.33;88.14;95404.91;4195049;28;5840;-68
2021/12/10 15:37:08;;;;;;;;;;;;;;;3.42;87.92;95406.44;4196880;28;5848;-67
2021/12/10 15:39:10;;;;;;;;;;;;;;;3.40;88.65;95411.84;4199940;28;5737;-66
2021/12/10 15:41:26;;;;;;;;;;;;;;;3.46;88.77;95426.78;4185708;22;5875;-68
2021/12/10 15:43:32;;;;;;;;;;;;;;;3.48;88.44;95419.56;4172528;28;5844;-68
2021/12/10 15:45:38;;;;;;;;;;;;;;;3.43;88.67;95426.34;4182804;28;5817;-68
2021/12/10 15:47:42;;;;;;;;;;;;;;;3.40;88.70;95437.97;4174592;28;5892;-68
2021/12/10 15:49:45;;;;;;;;;;;;;;;3.36;88.95;95431.47;4172222;28;5826;-68
2021/12/10 15:51:51;;;;;;;;;;;;;;;3.36;89.04;95436.69;4178013;28;5941;-68
2021/12/10 15:53:57;;;;;;;;;;;;;;;3.34;88.85;95440.47;4172470;28;5978;-68
2021/12/10 15:56:14;;;;;;;;;;;;;;;3.33;88.23;95452.75;4179103;28;5810;-68
2021/12/10 15:58:22;;;;;;;;;;;;;;;3.29;88.46;95454.09;4182725;28;5834;-67
2021/12/10 16:00:25;;;;;;;;;;;;;;;3.28;89.18;95459.47;4169222;28;7115;-68
2021/12/10 16:02:43;;;;;;;;;;;;;;;3.20;90.14;95463.81;4169410;28;5902;-67
2021/12/10 16:04:51;;;;;;;;;;;;;;;3.17;90.60;95468.56;4176070;28;5888;-67
2021/12/10 16:06:53;;;;;;;;;;;;;;;3.23;89.93;95467.88;4176651;28;5873;-68
2021/12/10 16:08:56;;;;;;;;;;;;;;;3.27;89.54;95474.34;4173318;28;5850;-68
2021/12/10 16:10:58;;;;;;;;;;;;;;;3.33;89.66;95478.84;4173130;28;6650;-68
2021/12/10 16:13:08;;;;;;;;;;;;;;;3.24;89.58;95485.16;4167829;28;5896;-67
2021/12/10 16:15:18;;;;;;;;;;;;;;;3.30;89.23;95486.25;4181739;28;5858;-67
2021/12/10 16:17:19;;;;;;;;;;;;;;;3.06;90.32;95487.28;4181609;28;5939;-67
2021/12/10 16:19:27;;;;;;;;;;;;;;;3.11;90.03;95484.97;4182639;28;5923;-68
2021/12/10 16:21:47;;;;;;;;;;;;;;;3.22;89.03;95490.56;4182831;28;5854;-69
2021/12/10 16:23:56;;;;;;;;;;;;;;;3.10;89.37;95497.22;4166638;28;6476;-69
2021/12/10 16:26:02;;;;;;;;;;;;;;;3.23;88.98;95496.59;4182991;28;5809;-68
2021/12/10 16:28:06;;;;;;;;;;;;;;;3.22;89.51;95510.66;4183060;28;5822;-66
2021/12/10 16:30:22;;;;;;;;;;;;;;;3.21;89.73;95511.63;4182151;28;5842;-67
2021/12/10 16:32:31;;;;;;;;;;;;;;;3.08;90.32;95514.88;4173703;28;5859;-67
2021/12/10 16:34:33;;;;;;;;;;;;;;;3.19;90.07;95521.47;4165171;28;5672;-68
2021/12/10 16:36:36;;;;;;;;;;;;;;;3.20;90.40;95525.69;4177471;28;5669;-68
2021/12/10 16:38:40;;;;;;;;;;;;;;;3.21;90.21;95527.31;4182712;28;5814;-68
2021/12/10 16:40:47;;;;;;;;;;;;;;;3.14;90.20;95529.81;4181413;28;5872;-68
2021/12/10 16:42:53;;;;;;;;;;;;;;;3.06;90.23;95536.91;4181195;28;5881;-67